Liz Vinik — WDJ7775 — position and weather

sailwx.info

Track history (hours):
 
Tides and Currents Weather Stations Pressure Air Temp Water Temp Dewpoint Dewpoint Depression Visibility Wind Speed Wind Dir Waves Ship Positions

Liz Vinik

Owner: Vinik Marine Services LLC, Keyport, NJ. More information available from US FCC via Universal Licensing System and Coast Guard Vessel Documentation Center.

Last reported at 2018-Apr-25 21:50 UTC. Time now 2018-Apr-25 22:05 UTC.
Position N 40°44' W 073°58'.

Length 32 m; draft 4.6 m.

Type: Tug. MMSI: 366920310.

Date/timePositionNaut miles runAvg speedWind from/ knotsBaromVisibWave heightAir tempDewpointWater temp
2018-Apr-25 21:50N 40°44' W 073°58'2 6.4
2018-Apr-25 21:30N 40°42' W 073°59'3 6.4
2018-Apr-25 21:00N 40°40' W 074°01'4 7.3
2018-Apr-25 20:24N 40°35' W 074°02'8 0.7
2018-Apr-25 08:45N 40°38' W 074°12'2 5.7
2018-Apr-25 08:23N 40°39' W 074°10'3 6.9
2018-Apr-25 08:01N 40°39' W 074°06'3 6.0
2018-Apr-25 07:31N 40°41' W 074°03'3 6.5
2018-Apr-25 07:00N 40°44' W 074°01'3 0.5
2018-Apr-25 00:55N 40°47' W 073°60'3 6.9
2018-Apr-25 00:30N 40°44' W 074°01'3 6.9
2018-Apr-25 00:00N 40°41' W 074°02'3 6.9
2018-Apr-24 23:30N 40°39' W 074°06'  
2018-Apr-21 10:39N 40°32' W 074°15'1 2.4
2018-Apr-21 10:25N 40°33' W 074°15'3 7.4
2018-Apr-21 09:59N 40°35' W 074°12'4 7.5
2018-Apr-21 09:30N 40°39' W 074°11'3 6.3
2018-Apr-21 09:00N 40°39' W 074°07'3 5.5
2018-Apr-21 08:30N 40°39' W 074°03'4 8.2
2018-Apr-21 08:00N 40°43' W 074°02'4 7.2
2018-Apr-21 07:30N 40°47' W 074°00'3 6.1
2018-Apr-21 07:00N 40°49' W 073°58'3 5.4
2018-Apr-21 06:30N 40°52' W 073°56'3 5.0
2018-Apr-21 06:00N 40°54' W 073°55'3 5.3
2018-Apr-21 05:29N 40°57' W 073°54'1 0.2
2018-Apr-21 02:40N 40°57' W 073°54'2 9.2
2018-Apr-21 02:27N 40°55' W 073°55'4 8.9
2018-Apr-21 02:00N 40°52' W 073°57'4 8.3
2018-Apr-21 01:30N 40°48' W 073°59'4 7.4
2018-Apr-21 01:00N 40°45' W 074°01'3 6.7
2018-Apr-21 00:30N 40°41' W 074°02'3 6.6
2018-Apr-21 00:00N 40°39' W 074°05'3 6.2
2018-Apr-20 23:30N 40°39' W 074°09'2 4.6
2018-Apr-20 22:59N 40°38' W 074°12'5 3.1
2018-Apr-20 21:17N 40°33' W 074°15'1 1.6
2018-Apr-20 20:49N 40°33' W 074°14'1 0.1
2018-Apr-20 11:08N 40°32' W 074°15'0 0.4
2018-Apr-20 10:54N 40°32' W 074°15'1 1.2
2018-Apr-20 10:27N 40°33' W 074°15'3 6.5
2018-Apr-20 09:59N 40°35' W 074°12'4 7.8
2018-Apr-20 09:30N 40°39' W 074°11'3 5.9
2018-Apr-20 09:00N 40°39' W 074°07'3 5.2
2018-Apr-20 08:30N 40°40' W 074°04'1 2.7
2018-Apr-20 08:00N 40°41' W 074°03'4 8.6
2018-Apr-20 07:30N 40°45' W 074°01'4 8.0
2018-Apr-20 07:00N 40°48' W 073°59'4 7.2
2018-Apr-20 06:30N 40°52' W 073°57'3 6.3
2018-Apr-20 06:00N 40°55' W 073°55'3 6.0
2018-Apr-20 05:30N 40°57' W 073°54'1 0.5
2018-Apr-20 03:07N 40°59' W 073°54'1 9.3
2018-Apr-20 03:00N 40°57' W 073°54'5 9.1
2018-Apr-20 02:29N 40°53' W 073°56'4 8.8
2018-Apr-20 02:00N 40°49' W 073°58'4 8.3
2018-Apr-20 01:30N 40°45' W 074°01'4 7.2
2018-Apr-20 01:00N 40°42' W 074°02'3 6.9
2018-Apr-20 00:30N 40°39' W 074°04'3 6.8
2018-Apr-20 00:00N 40°39' W 074°09'3 6.0
2018-Apr-19 23:28N 40°37' W 074°12'5 0.3
2018-Apr-19 05:12N 40°32' W 074°15'2 6.6
2018-Apr-19 04:56N 40°33' W 074°13'3 7.0
2018-Apr-19 04:30N 40°36' W 074°12'3 6.0
2018-Apr-19 04:00N 40°39' W 074°10'3 6.3
2018-Apr-19 03:29N 40°39' W 074°06'2 4.2
2018-Apr-19 03:00N 40°40' W 074°04'2 3.3
2018-Apr-19 02:30N 40°41' W 074°02'3 5.2
2018-Apr-19 02:01N 40°44' W 074°01'3 5.3
2018-Apr-19 01:30N 40°46' W 074°00'3 5.3
2018-Apr-19 01:00N 40°49' W 073°59'3 5.6
2018-Apr-19 00:30N 40°51' W 073°57'3 6.3
2018-Apr-18 23:59N 40°54' W 073°55'3 0.9
2018-Apr-18 20:57N 40°57' W 073°54'3 6.6
2018-Apr-18 20:29N 40°54' W 073°55'3 6.0
2018-Apr-18 20:00N 40°51' W 073°57'3 5.8
2018-Apr-18 19:30N 40°49' W 073°58'3 6.0
2018-Apr-18 19:00N 40°46' W 074°00'3 6.5
2018-Apr-18 18:30N 40°43' W 074°02'3 6.9
2018-Apr-18 18:00N 40°40' W 074°03'5 9.2
2018-Apr-18 17:30N 40°39' W 074°09'3 4.9
2018-Apr-18 16:59N 40°37' W 074°12'3 6.8
2018-Apr-18 16:30N 40°34' W 074°13'3 0.2
2018-Apr-18 02:52N 40°32' W 074°15'0 0.1
2018-Apr-18 01:25N 40°32' W 074°15'0 0.1
2018-Apr-18 00:58N 40°32' W 074°15'0 0.1
2018-Apr-18 00:14N 40°32' W 074°15'1 6.0
2018-Apr-17 23:59N 40°33' W 074°14'3 6.1
2018-Apr-17 23:29N 40°36' W 074°12'2 4.7
2018-Apr-17 23:00N 40°38' W 074°12'3 6.2
2018-Apr-17 22:30N 40°39' W 074°07'4 7.5
2018-Apr-17 22:00N 40°40' W 074°03'4 9.0
2018-Apr-17 21:30N 40°44' W 074°01'5 9.3
2018-Apr-17 21:00N 40°49' W 073°59'5 9.5
2018-Apr-17 20:30N 40°53' W 073°56'7 1.3
2018-Apr-17 14:52N 41°00' W 073°53'4 9.2
2018-Apr-17 14:25N 40°56' W 073°54'4 9.1
2018-Apr-17 14:00N 40°52' W 073°56'5 9.6
2018-Apr-17 13:30N 40°48' W 073°59'4 8.8
2018-Apr-17 13:00N 40°44' W 074°01'4 8.1
2018-Apr-17 12:30N 40°40' W 074°03'4 7.2
2018-Apr-17 12:00N 40°39' W 074°07'4 7.1
2018-Apr-17 11:30N 40°38' W 074°12'4 7.9
2018-Apr-17 11:00N 40°34' W 074°13'3 4.4
2018-Apr-17 10:20N 40°32' W 074°15'  
Track history (hours):
 
Tides and Currents Weather Stations Pressure Air Temp Water Temp Dewpoint Dewpoint Depression Visibility Wind Speed Wind Dir Waves Ship Positions

Liz Vinik

Owner: Vinik Marine Services LLC, Keyport, NJ. More information available from US FCC via Universal Licensing System and Coast Guard Vessel Documentation Center.

Last reported at 2018-Apr-25 21:50 UTC. Time now 2018-Apr-25 22:05 UTC.
Position N 40°44' W 073°58'.

Length 32 m; draft 4.6 m.

Type: Tug. MMSI: 366920310.

Date/timePositionNaut miles runAvg speedWind from/ knotsBaromVisibWave heightAir tempDewpointWater temp
2018-Apr-25 21:50N 40°44' W 073°58'2 6.4
2018-Apr-25 21:30N 40°42' W 073°59'3 6.4
2018-Apr-25 21:00N 40°40' W 074°01'4 7.3
2018-Apr-25 20:24N 40°35' W 074°02'8 0.7
2018-Apr-25 08:45N 40°38' W 074°12'2 5.7
2018-Apr-25 08:23N 40°39' W 074°10'3 6.9
2018-Apr-25 08:01N 40°39' W 074°06'3 6.0
2018-Apr-25 07:31N 40°41' W 074°03'3 6.5
2018-Apr-25 07:00N 40°44' W 074°01'3 0.5
2018-Apr-25 00:55N 40°47' W 073°60'3 6.9
2018-Apr-25 00:30N 40°44' W 074°01'3 6.9
2018-Apr-25 00:00N 40°41' W 074°02'3 6.9
2018-Apr-24 23:30N 40°39' W 074°06'  
2018-Apr-21 10:39N 40°32' W 074°15'1 2.4
2018-Apr-21 10:25N 40°33' W 074°15'3 7.4
2018-Apr-21 09:59N 40°35' W 074°12'4 7.5
2018-Apr-21 09:30N 40°39' W 074°11'3 6.3
2018-Apr-21 09:00N 40°39' W 074°07'3 5.5
2018-Apr-21 08:30N 40°39' W 074°03'4 8.2
2018-Apr-21 08:00N 40°43' W 074°02'4 7.2
2018-Apr-21 07:30N 40°47' W 074°00'3 6.1
2018-Apr-21 07:00N 40°49' W 073°58'3 5.4
2018-Apr-21 06:30N 40°52' W 073°56'3 5.0
2018-Apr-21 06:00N 40°54' W 073°55'3 5.3
2018-Apr-21 05:29N 40°57' W 073°54'1 0.2
2018-Apr-21 02:40N 40°57' W 073°54'2 9.2
2018-Apr-21 02:27N 40°55' W 073°55'4 8.9
2018-Apr-21 02:00N 40°52' W 073°57'4 8.3
2018-Apr-21 01:30N 40°48' W 073°59'4 7.4
2018-Apr-21 01:00N 40°45' W 074°01'3 6.7
2018-Apr-21 00:30N 40°41' W 074°02'3 6.6
2018-Apr-21 00:00N 40°39' W 074°05'3 6.2
2018-Apr-20 23:30N 40°39' W 074°09'2 4.6
2018-Apr-20 22:59N 40°38' W 074°12'5 3.1
2018-Apr-20 21:17N 40°33' W 074°15'1 1.6
2018-Apr-20 20:49N 40°33' W 074°14'1 0.1
2018-Apr-20 11:08N 40°32' W 074°15'0 0.4
2018-Apr-20 10:54N 40°32' W 074°15'1 1.2
2018-Apr-20 10:27N 40°33' W 074°15'3 6.5
2018-Apr-20 09:59N 40°35' W 074°12'4 7.8
2018-Apr-20 09:30N 40°39' W 074°11'3 5.9
2018-Apr-20 09:00N 40°39' W 074°07'3 5.2
2018-Apr-20 08:30N 40°40' W 074°04'1 2.7
2018-Apr-20 08:00N 40°41' W 074°03'4 8.6
2018-Apr-20 07:30N 40°45' W 074°01'4 8.0
2018-Apr-20 07:00N 40°48' W 073°59'4 7.2
2018-Apr-20 06:30N 40°52' W 073°57'3 6.3
2018-Apr-20 06:00N 40°55' W 073°55'3 6.0
2018-Apr-20 05:30N 40°57' W 073°54'1 0.5
2018-Apr-20 03:07N 40°59' W 073°54'1 9.3
2018-Apr-20 03:00N 40°57' W 073°54'5 9.1
2018-Apr-20 02:29N 40°53' W 073°56'4 8.8
2018-Apr-20 02:00N 40°49' W 073°58'4 8.3
2018-Apr-20 01:30N 40°45' W 074°01'4 7.2
2018-Apr-20 01:00N 40°42' W 074°02'3 6.9
2018-Apr-20 00:30N 40°39' W 074°04'3 6.8
2018-Apr-20 00:00N 40°39' W 074°09'3 6.0
2018-Apr-19 23:28N 40°37' W 074°12'5 0.3
2018-Apr-19 05:12N 40°32' W 074°15'2 6.6
2018-Apr-19 04:56N 40°33' W 074°13'3 7.0
2018-Apr-19 04:30N 40°36' W 074°12'3 6.0
2018-Apr-19 04:00N 40°39' W 074°10'3 6.3
2018-Apr-19 03:29N 40°39' W 074°06'2 4.2
2018-Apr-19 03:00N 40°40' W 074°04'2 3.3
2018-Apr-19 02:30N 40°41' W 074°02'3 5.2
2018-Apr-19 02:01N 40°44' W 074°01'3 5.3
2018-Apr-19 01:30N 40°46' W 074°00'3 5.3
2018-Apr-19 01:00N 40°49' W 073°59'3 5.6
2018-Apr-19 00:30N 40°51' W 073°57'3 6.3
2018-Apr-18 23:59N 40°54' W 073°55'3 0.9
2018-Apr-18 20:57N 40°57' W 073°54'3 6.6
2018-Apr-18 20:29N 40°54' W 073°55'3 6.0
2018-Apr-18 20:00N 40°51' W 073°57'3 5.8
2018-Apr-18 19:30N 40°49' W 073°58'3 6.0
2018-Apr-18 19:00N 40°46' W 074°00'3 6.5
2018-Apr-18 18:30N 40°43' W 074°02'3 6.9
2018-Apr-18 18:00N 40°40' W 074°03'5 9.2
2018-Apr-18 17:30N 40°39' W 074°09'3 4.9
2018-Apr-18 16:59N 40°37' W 074°12'3 6.8
2018-Apr-18 16:30N 40°34' W 074°13'3 0.2
2018-Apr-18 02:52N 40°32' W 074°15'0 0.1
2018-Apr-18 01:25N 40°32' W 074°15'0 0.1
2018-Apr-18 00:58N 40°32' W 074°15'0 0.1
2018-Apr-18 00:14N 40°32' W 074°15'1 6.0
2018-Apr-17 23:59N 40°33' W 074°14'3 6.1
2018-Apr-17 23:29N 40°36' W 074°12'2 4.7
2018-Apr-17 23:00N 40°38' W 074°12'3 6.2
2018-Apr-17 22:30N 40°39' W 074°07'4 7.5
2018-Apr-17 22:00N 40°40' W 074°03'4 9.0
2018-Apr-17 21:30N 40°44' W 074°01'5 9.3
2018-Apr-17 21:00N 40°49' W 073°59'5 9.5
2018-Apr-17 20:30N 40°53' W 073°56'7 1.3
2018-Apr-17 14:52N 41°00' W 073°53'4 9.2
2018-Apr-17 14:25N 40°56' W 073°54'4 9.1
2018-Apr-17 14:00N 40°52' W 073°56'5 9.6
2018-Apr-17 13:30N 40°48' W 073°59'4 8.8
2018-Apr-17 13:00N 40°44' W 074°01'4 8.1
2018-Apr-17 12:30N 40°40' W 074°03'4 7.2
2018-Apr-17 12:00N 40°39' W 074°07'4 7.1
2018-Apr-17 11:30N 40°38' W 074°12'4 7.9
2018-Apr-17 11:00N 40°34' W 074°13'3 4.4
2018-Apr-17 10:20N 40°32' W 074°15'  

Dump ship's entire track history